Česky Dansk Deutsch English Español Suomi Français Magyar Italiano Nederlands norsk Polski Português svenska Türkçe

 

Het Weer

Suleyman Demirel (Turkije)

11:20, 23 augustus 2016 (GMT)

NWNNE
WE
SWSSE
Home            
Suleyman Demirel Isparta Cardak Afyon Usak Antalya Dalaman Konya Sivrihisar Eskisehir Aydin Bodrum Milas Airport Akhisar Rhodes / Maritsa Rhodes Airport Bodrum Bursa / Yenisehir, Mil-Civ Bursa Izmir / Adnan Menderes Balikesir Izmir / Cigli Samos Airport Izmir \ Kaklic

Om een weerknop op uw website of weblog te plaatsen, copieer onderstaande code en plak die in uw pagina. In het eerste vakje staat HTML-code, in het tweede vakje UBB-code.


Add to Google

Details

Wind speed:2 bf, 5 kn, 2.6 m/s, 5.8 miles/h, 9.3 km/h
Wind direction:SE, 130° - WSW, 240°
Visibility:Greater than 10000 m, 10 km, 32800 ft, 6.2 miles
Clouds:Aufgelockert bewölkt at 3500 ft, 1067 m
Temperature:33°C, 91°F
Gefühlte Temperatur:31°C, 88°F
Dew-point:9°C, 48°F
Atmospheric pressure:1013 hPa, 759.8 mmHg, 29.91 inHg, 1.000 atm
Relative humidity:22.8 %
METAR:LTFC 231120Z 17005KT 130V240 9999 SCT035 33/09 Q1013

Snelkoppelingen

Actuele weersinformatie van de hele wereld. Voeg locaties toe met het plus (+) symbool. Deze snelkoppelingen kunnen worden toegevoegd aan Google.

Lid van de Technetium groep

website free tracking
StatCounter NetStat W3C Validator

01-07-2022 07:32:54
astro.technetium.be money.technetium.be phote.technetium.be tafeltennistafel.technetium.be www.ligfiets.net